Philadelphia, Pennsylvania
Traffic Map
Current Weather Conditions
Philadelphia, Pennsylvania
Clear
Clear
60°
Feels Like: 60°
Wind Chill: 60° Ceiling: Unl
Heat Index: 60° Visibility: 10mi
Dew Point: 43° Wind: 10mph
Humidity: 53% Direction: 200° (SSW)
Pressure: 30.39in Gusts: 0mph
Raw Report DataKPHL 240254Z 20009KT 10SM CLR 16/06 A3039 RMK AO2 SLP289 T01560061 53007
Traffic Incident Summary
Active as of:
Severity:
Category:
InformationThere was an issue retrieving the traffic information for this location. Please try a different location or try again shortly.
Advertisements
Track Severe Weather on mobile